Formosa, Argentina
Current Conditions -  °F | °C
As of 10:00 AM on Thursday 23 Oct 2014 (Local Time) from SGAS Reporting Station
Clear Clear  
Wind Chill: 84°   Ceiling: Unl
Heat Index: 84°   Visibility: 6mi
Dew Point: 61°   Wind: 9mph
Humidity: 45%   Direction: 70°ENE
Pressure: 29.97"   Gusts: NA
Location:  26.18°S, 58.18°W
Report Text: SGAS 231300Z 07008KT 040V100 CAVOK 29/16 Q1015
Loading
Personal Weather Stations






























Interactive Weather Map
Tropical Storm Tracking
New forecast layout! Learn more

10-Day Weather Forecast

Advertisements
Track Severe Weather on mobile